sensor_id;sensor_type;location;lat;lon;timestamp;pressure;altitude;pressure_sealevel;temperature;humidity
19797;BME280;10058;57.654;12.044;2023-04-07T00:01:07;101872.50;;;1.72;100.00
19797;BME280;10058;57.654;12.044;2023-04-07T00:03:32;101863.63;;;1.70;100.00
19797;BME280;10058;57.654;12.044;2023-04-07T00:09:00;101869.75;;;1.70;100.00
19797;BME280;10058;57.654;12.044;2023-04-07T00:11:26;101875.63;;;1.68;100.00
19797;BME280;10058;57.654;12.044;2023-04-07T00:13:51;101871.88;;;1.64;100.00
19797;BME280;10058;57.654;12.044;2023-04-07T00:16:16;101884.63;;;1.61;100.00
19797;BME280;10058;57.654;12.044;2023-04-07T00:18:41;101878.25;;;1.58;100.00
19797;BME280;10058;57.654;12.044;2023-04-07T00:21:06;101877.34;;;1.57;100.00
19797;BME280;10058;57.654;12.044;2023-04-07T00:23:32;101876.69;;;1.60;100.00
19797;BME280;10058;57.654;12.044;2023-04-07T00:28:59;101873.50;;;1.52;100.00
19797;BME280;10058;57.654;12.044;2023-04-07T00:31:25;101878.03;;;1.55;100.00
19797;BME280;10058;57.654;12.044;2023-04-07T00:33:50;101890.84;;;1.42;100.00
19797;BME280;10058;57.654;12.044;2023-04-07T00:36:15;101887.19;;;1.39;100.00
19797;BME280;10058;57.654;12.044;2023-04-07T00:38:41;101896.03;;;1.42;100.00
19797;BME280;10058;57.654;12.044;2023-04-07T00:41:06;101891.00;;;1.33;100.00
19797;BME280;10058;57.654;12.044;2023-04-07T00:43:31;101901.69;;;1.36;100.00
19797;BME280;10058;57.654;12.044;2023-04-07T00:48:59;101904.16;;;1.34;100.00
19797;BME280;10058;57.654;12.044;2023-04-07T00:51:25;101899.72;;;1.33;100.00
19797;BME280;10058;57.654;12.044;2023-04-07T00:53:51;101904.56;;;1.29;100.00
19797;BME280;10058;57.654;12.044;2023-04-07T00:56:16;101903.66;;;1.28;100.00
19797;BME280;10058;57.654;12.044;2023-04-07T00:58:41;101905.47;;;1.29;100.00
19797;BME280;10058;57.654;12.044;2023-04-07T01:01:07;101904.72;;;1.20;100.00
19797;BME280;10058;57.654;12.044;2023-04-07T01:03:35;101906.50;;;1.21;100.00
19797;BME280;10058;57.654;12.044;2023-04-07T01:09:06;101914.88;;;1.17;100.00
19797;BME280;10058;57.654;12.044;2023-04-07T01:14:00;101904.22;;;1.14;100.00
19797;BME280;10058;57.654;12.044;2023-04-07T01:16:34;101906.03;;;1.05;100.00
19797;BME280;10058;57.654;12.044;2023-04-07T01:19:46;101911.00;;;0.92;100.00
19797;BME280;10058;57.654;12.044;2023-04-07T01:21:45;101907.34;;;0.90;100.00
19797;BME280;10058;57.654;12.044;2023-04-07T01:24:26;101912.03;;;0.94;100.00
19797;BME280;10058;57.654;12.044;2023-04-07T01:29:56;101917.00;;;1.01;100.00
19797;BME280;10058;57.654;12.044;2023-04-07T01:32:24;101914.00;;;0.96;100.00
19797;BME280;10058;57.654;12.044;2023-04-07T01:34:51;101914.13;;;0.98;100.00
19797;BME280;10058;57.654;12.044;2023-04-07T01:37:16;101909.69;;;0.97;100.00
19797;BME280;10058;57.654;12.044;2023-04-07T01:39:41;101910.22;;;0.93;100.00
19797;BME280;10058;57.654;12.044;2023-04-07T01:42:06;101910.22;;;0.93;100.00
19797;BME280;10058;57.654;12.044;2023-04-07T01:47:35;101916.47;;;0.95;100.00
19797;BME280;10058;57.654;12.044;2023-04-07T01:50:01;101913.09;;;0.86;100.00
19797;BME280;10058;57.654;12.044;2023-04-07T01:52:31;101917.78;;;0.80;100.00
19797;BME280;10058;57.654;12.044;2023-04-07T01:54:56;101916.47;;;0.75;100.00
19797;BME280;10058;57.654;12.044;2023-04-07T01:57:21;101920.13;;;0.77;100.00
19797;BME280;10058;57.654;12.044;2023-04-07T01:59:47;101916.75;;;0.78;100.00
19797;BME280;10058;57.654;12.044;2023-04-07T02:02:12;101916.09;;;0.80;100.00
19797;BME280;10058;57.654;12.044;2023-04-07T02:07:59;101894.91;;;0.65;100.00
19797;BME280;10058;57.654;12.044;2023-04-07T02:10:27;101919.22;;;0.76;100.00
19797;BME280;10058;57.654;12.044;2023-04-07T02:12:53;101929.88;;;0.79;100.00
19797;BME280;10058;57.654;12.044;2023-04-07T02:15:19;101930.00;;;0.70;100.00
19797;BME280;10058;57.654;12.044;2023-04-07T02:17:46;101929.78;;;0.67;100.00
19797;BME280;10058;57.654;12.044;2023-04-07T02:20:13;101924.28;;;0.64;100.00
19797;BME280;10058;57.654;12.044;2023-04-07T02:22:39;101927.69;;;0.63;100.00
19797;BME280;10058;57.654;12.044;2023-04-07T02:28:07;101929.59;;;0.56;100.00
19797;BME280;10058;57.654;12.044;2023-04-07T02:30:33;101937.41;;;0.46;100.00
19797;BME280;10058;57.654;12.044;2023-04-07T02:32:58;101936.22;;;0.42;100.00
19797;BME280;10058;57.654;12.044;2023-04-07T02:35:24;101932.06;;;0.34;100.00
19797;BME280;10058;57.654;12.044;2023-04-07T02:37:49;101929.06;;;0.29;100.00
19797;BME280;10058;57.654;12.044;2023-04-07T02:40:14;101934.13;;;0.28;100.00
19797;BME280;10058;57.654;12.044;2023-04-07T02:42:40;101934.00;;;0.26;100.00
19797;BME280;10058;57.654;12.044;2023-04-07T02:48:08;101933.63;;;0.32;100.00
19797;BME280;10058;57.654;12.044;2023-04-07T02:50:33;101929.44;;;0.24;100.00
19797;BME280;10058;57.654;12.044;2023-04-07T02:52:58;101938.00;;;0.23;100.00
19797;BME280;10058;57.654;12.044;2023-04-07T02:55:23;101935.69;;;0.16;100.00
19797;BME280;10058;57.654;12.044;2023-04-07T02:57:48;101939.41;;;0.09;100.00
19797;BME280;10058;57.654;12.044;2023-04-07T03:00:14;101943.16;;;0.03;100.00
19797;BME280;10058;57.654;12.044;2023-04-07T03:02:40;101949.03;;;0.00;100.00
19797;BME280;10058;57.654;12.044;2023-04-07T03:08:07;101946.44;;;0.00;100.00
19797;BME280;10058;57.654;12.044;2023-04-07T03:10:32;101949.66;;;-0.03;100.00
19797;BME280;10058;57.654;12.044;2023-04-07T03:12:58;101949.66;;;-0.03;100.00
19797;BME280;10058;57.654;12.044;2023-04-07T03:15:23;101954.59;;;-0.06;100.00
19797;BME280;10058;57.654;12.044;2023-04-07T03:17:48;101959.06;;;-0.23;100.00
19797;BME280;10058;57.654;12.044;2023-04-07T03:20:13;101951.41;;;-0.22;100.00
19797;BME280;10058;57.654;12.044;2023-04-07T03:22:38;101947.13;;;-0.21;100.00
19797;BME280;10058;57.654;12.044;2023-04-07T03:28:06;101955.69;;;-0.22;100.00
19797;BME280;10058;57.654;12.044;2023-04-07T03:30:31;101960.50;;;-0.17;100.00
19797;BME280;10058;57.654;12.044;2023-04-07T03:32:57;101953.38;;;-0.19;100.00
19797;BME280;10058;57.654;12.044;2023-04-07T03:35:22;101961.50;;;-0.25;100.00
19797;BME280;10058;57.654;12.044;2023-04-07T03:37:47;101964.53;;;-0.20;100.00
19797;BME280;10058;57.654;12.044;2023-04-07T03:40:12;101967.28;;;-0.19;100.00
19797;BME280;10058;57.654;12.044;2023-04-07T03:42:38;101972.56;;;-0.17;100.00
19797;BME280;10058;57.654;12.044;2023-04-07T03:48:06;101982.28;;;-0.25;100.00
19797;BME280;10058;57.654;12.044;2023-04-07T03:50:35;101975.06;;;-0.19;100.00
19797;BME280;10058;57.654;12.044;2023-04-07T03:53:01;101981.81;;;-0.21;100.00
19797;BME280;10058;57.654;12.044;2023-04-07T03:55:26;101978.56;;;-0.18;100.00
19797;BME280;10058;57.654;12.044;2023-04-07T03:57:51;101978.19;;;-0.13;100.00
19797;BME280;10058;57.654;12.044;2023-04-07T04:00:16;101979.50;;;-0.18;100.00
19797;BME280;10058;57.654;12.044;2023-04-07T04:02:42;101978.44;;;-0.20;100.00
19797;BME280;10058;57.654;12.044;2023-04-07T04:08:10;101977.38;;;-0.22;100.00
19797;BME280;10058;57.654;12.044;2023-04-07T04:10:35;101977.91;;;-0.16;100.00
19797;BME280;10058;57.654;12.044;2023-04-07T04:13:00;101983.88;;;-0.17;100.00
19797;BME280;10058;57.654;12.044;2023-04-07T04:15:27;101981.28;;;-0.17;100.00
19797;BME280;10058;57.654;12.044;2023-04-07T04:17:52;101992.47;;;-0.18;100.00
19797;BME280;10058;57.654;12.044;2023-04-07T04:20:18;101982.56;;;-0.22;100.00
19797;BME280;10058;57.654;12.044;2023-04-07T04:22:43;101986.09;;;-0.21;100.00
19797;BME280;10058;57.654;12.044;2023-04-07T04:28:10;101988.44;;;-0.14;100.00
19797;BME280;10058;57.654;12.044;2023-04-07T04:30:36;101996.66;;;-0.10;100.00
19797;BME280;10058;57.654;12.044;2023-04-07T04:33:01;101994.97;;;-0.09;100.00
19797;BME280;10058;57.654;12.044;2023-04-07T04:35:27;101995.59;;;-0.12;100.00
19797;BME280;10058;57.654;12.044;2023-04-07T04:37:52;101987.31;;;-0.08;100.00
19797;BME280;10058;57.654;12.044;2023-04-07T04:40:17;101998.25;;;-0.02;100.00
19797;BME280;10058;57.654;12.044;2023-04-07T04:42:42;102005.53;;;0.03;100.00
19797;BME280;10058;57.654;12.044;2023-04-07T04:48:10;102004.25;;;0.08;100.00
19797;BME280;10058;57.654;12.044;2023-04-07T04:50:36;102008.97;;;0.12;100.00
19797;BME280;10058;57.654;12.044;2023-04-07T04:53:01;102012.34;;;0.11;100.00
19797;BME280;10058;57.654;12.044;2023-04-07T04:55:26;102013.13;;;0.10;100.00
19797;BME280;10058;57.654;12.044;2023-04-07T04:57:51;102011.84;;;0.15;100.00
19797;BME280;10058;57.654;12.044;2023-04-07T05:00:17;102016.50;;;0.19;100.00
19797;BME280;10058;57.654;12.044;2023-04-07T05:02:42;102018.91;;;0.26;100.00
19797;BME280;10058;57.654;12.044;2023-04-07T05:08:10;102026.00;;;0.57;100.00
19797;BME280;10058;57.654;12.044;2023-04-07T05:10:37;102025.41;;;0.80;100.00
19797;BME280;10058;57.654;12.044;2023-04-07T05:13:02;102017.34;;;1.28;100.00
19797;BME280;10058;57.654;12.044;2023-04-07T05:15:27;102019.81;;;1.06;100.00
19797;BME280;10058;57.654;12.044;2023-04-07T05:17:52;102033.22;;;0.90;100.00
19797;BME280;10058;57.654;12.044;2023-04-07T05:20:17;102020.59;;;0.95;100.00
19797;BME280;10058;57.654;12.044;2023-04-07T05:22:42;102024.47;;;1.40;100.00
19797;BME280;10058;57.654;12.044;2023-04-07T05:28:10;102033.34;;;2.05;100.00
19797;BME280;10058;57.654;12.044;2023-04-07T05:30:35;102031.13;;;1.99;100.00
19797;BME280;10058;57.654;12.044;2023-04-07T05:33:01;102026.03;;;2.33;100.00
19797;BME280;10058;57.654;12.044;2023-04-07T05:35:26;102025.50;;;2.37;100.00
19797;BME280;10058;57.654;12.044;2023-04-07T05:37:51;102035.16;;;2.60;100.00
19797;BME280;10058;57.654;12.044;2023-04-07T05:40:16;102031.69;;;2.49;100.00
19797;BME280;10058;57.654;12.044;2023-04-07T05:42:42;102038.19;;;2.76;100.00
19797;BME280;10058;57.654;12.044;2023-04-07T05:48:10;102043.03;;;2.50;100.00
19797;BME280;10058;57.654;12.044;2023-04-07T05:50:35;102028.34;;;3.97;100.00
19797;BME280;10058;57.654;12.044;2023-04-07T05:53:00;102031.13;;;4.35;100.00
19797;BME280;10058;57.654;12.044;2023-04-07T05:55:26;102019.59;;;5.96;100.00
19797;BME280;10058;57.654;12.044;2023-04-07T05:57:51;102009.28;;;7.51;100.00
19797;BME280;10058;57.654;12.044;2023-04-07T06:00:16;101984.75;;;9.75;100.00
19797;BME280;10058;57.654;12.044;2023-04-07T06:02:41;101986.97;;;9.84;100.00
19797;BME280;10058;57.654;12.044;2023-04-07T06:08:09;102006.91;;;7.71;100.00
19797;BME280;10058;57.654;12.044;2023-04-07T06:10:35;102028.16;;;5.04;100.00
19797;BME280;10058;57.654;12.044;2023-04-07T06:13:00;102044.91;;;4.21;100.00
19797;BME280;10058;57.654;12.044;2023-04-07T06:15:25;102049.47;;;4.00;100.00
19797;BME280;10058;57.654;12.044;2023-04-07T06:17:50;102042.78;;;3.92;100.00
19797;BME280;10058;57.654;12.044;2023-04-07T06:20:16;102049.84;;;3.93;100.00
19797;BME280;10058;57.654;12.044;2023-04-07T06:22:41;102054.69;;;4.00;100.00
19797;BME280;10058;57.654;12.044;2023-04-07T06:28:09;102052.53;;;4.30;100.00
19797;BME280;10058;57.654;12.044;2023-04-07T06:30:34;102049.31;;;4.34;100.00
19797;BME280;10058;57.654;12.044;2023-04-07T06:32:59;102050.03;;;4.31;100.00
19797;BME280;10058;57.654;12.044;2023-04-07T06:35:24;102045.00;;;4.46;100.00
19797;BME280;10058;57.654;12.044;2023-04-07T06:37:51;102049.66;;;4.38;100.00
19797;BME280;10058;57.654;12.044;2023-04-07T06:40:16;102054.28;;;4.54;100.00
19797;BME280;10058;57.654;12.044;2023-04-07T06:42:42;102057.81;;;4.66;100.00
19797;BME280;10058;57.654;12.044;2023-04-07T06:48:10;102058.09;;;4.82;100.00
19797;BME280;10058;57.654;12.044;2023-04-07T06:50:35;102056.06;;;4.78;100.00
19797;BME280;10058;57.654;12.044;2023-04-07T06:53:01;102054.06;;;4.87;100.00
19797;BME280;10058;57.654;12.044;2023-04-07T06:55:26;102057.25;;;5.20;100.00
19797;BME280;10058;57.654;12.044;2023-04-07T06:57:51;102053.38;;;5.02;100.00
19797;BME280;10058;57.654;12.044;2023-04-07T07:00:17;102057.69;;;5.26;100.00
19797;BME280;10058;57.654;12.044;2023-04-07T07:02:42;102060.88;;;5.22;100.00
19797;BME280;10058;57.654;12.044;2023-04-07T07:08:10;101997.34;;;5.13;100.00
19797;BME280;10058;57.654;12.044;2023-04-07T07:10:36;102047.91;;;5.75;100.00
19797;BME280;10058;57.654;12.044;2023-04-07T07:13:01;102042.47;;;5.85;100.00
19797;BME280;10058;57.654;12.044;2023-04-07T07:15:26;102048.34;;;5.94;100.00
19797;BME280;10058;57.654;12.044;2023-04-07T07:17:51;102060.50;;;6.05;100.00
19797;BME280;10058;57.654;12.044;2023-04-07T07:20:16;102046.56;;;6.19;100.00
19797;BME280;10058;57.654;12.044;2023-04-07T07:22:41;102042.88;;;6.44;100.00
19797;BME280;10058;57.654;12.044;2023-04-07T07:28:09;102037.31;;;6.80;100.00
19797;BME280;10058;57.654;12.044;2023-04-07T07:30:35;102046.06;;;6.66;100.00
19797;BME280;10058;57.654;12.044;2023-04-07T07:33:00;102037.66;;;6.99;100.00
19797;BME280;10058;57.654;12.044;2023-04-07T07:35:25;102047.22;;;7.12;100.00
19797;BME280;10058;57.654;12.044;2023-04-07T07:37:51;102034.75;;;6.95;100.00
19797;BME280;10058;57.654;12.044;2023-04-07T07:40:16;102038.34;;;6.82;100.00
19797;BME280;10058;57.654;12.044;2023-04-07T07:42:41;102036.72;;;6.84;100.00
19797;BME280;10058;57.654;12.044;2023-04-07T07:48:09;102047.19;;;6.97;100.00
19797;BME280;10058;57.654;12.044;2023-04-07T07:50:35;102038.88;;;7.05;100.00
19797;BME280;10058;57.654;12.044;2023-04-07T07:53:00;102050.63;;;6.69;100.00
19797;BME280;10058;57.654;12.044;2023-04-07T07:55:26;102055.72;;;6.80;100.00
19797;BME280;10058;57.654;12.044;2023-04-07T07:57:51;102056.56;;;6.66;100.00
19797;BME280;10058;57.654;12.044;2023-04-07T08:00:16;102064.50;;;6.53;100.00
19797;BME280;10058;57.654;12.044;2023-04-07T08:02:41;102075.72;;;6.50;100.00
19797;BME280;10058;57.654;12.044;2023-04-07T08:08:09;102066.16;;;7.07;100.00
19797;BME280;10058;57.654;12.044;2023-04-07T08:10:35;102067.59;;;7.02;100.00
19797;BME280;10058;57.654;12.044;2023-04-07T08:13:00;102065.56;;;6.97;100.00
19797;BME280;10058;57.654;12.044;2023-04-07T08:15:25;102063.25;;;6.61;100.00
19797;BME280;10058;57.654;12.044;2023-04-07T08:17:50;102065.00;;;6.88;100.00
19797;BME280;10058;57.654;12.044;2023-04-07T08:20:15;102066.84;;;7.32;100.00
19797;BME280;10058;57.654;12.044;2023-04-07T08:22:41;102056.53;;;7.35;100.00
19797;BME280;10058;57.654;12.044;2023-04-07T08:28:09;102053.19;;;7.82;100.00
19797;BME280;10058;57.654;12.044;2023-04-07T08:30:35;102058.72;;;7.86;100.00
19797;BME280;10058;57.654;12.044;2023-04-07T08:33:00;102057.72;;;7.84;100.00
19797;BME280;10058;57.654;12.044;2023-04-07T08:35:25;102068.25;;;7.99;100.00
19797;BME280;10058;57.654;12.044;2023-04-07T08:37:50;102061.81;;;7.64;100.00
19797;BME280;10058;57.654;12.044;2023-04-07T08:40:16;102069.00;;;7.96;100.00
19797;BME280;10058;57.654;12.044;2023-04-07T08:42:42;102070.97;;;7.56;100.00
19797;BME280;10058;57.654;12.044;2023-04-07T08:48:14;102071.16;;;7.59;100.00
19797;BME280;10058;57.654;12.044;2023-04-07T08:50:41;102054.63;;;7.47;100.00
19797;BME280;10058;57.654;12.044;2023-04-07T08:53:08;102063.31;;;7.46;100.00
19797;BME280;10058;57.654;12.044;2023-04-07T08:55:36;102053.56;;;7.58;100.00
19797;BME280;10058;57.654;12.044;2023-04-07T08:58:02;102058.09;;;7.90;100.00
19797;BME280;10058;57.654;12.044;2023-04-07T09:00:28;102056.47;;;7.78;100.00
19797;BME280;10058;57.654;12.044;2023-04-07T09:02:53;102062.56;;;7.91;100.00
19797;BME280;10058;57.654;12.044;2023-04-07T09:08:21;102052.81;;;8.05;100.00
19797;BME280;10058;57.654;12.044;2023-04-07T09:10:47;102060.94;;;8.70;100.00
19797;BME280;10058;57.654;12.044;2023-04-07T09:13:12;102055.47;;;8.51;100.00
19797;BME280;10058;57.654;12.044;2023-04-07T09:15:37;102060.69;;;8.34;100.00
19797;BME280;10058;57.654;12.044;2023-04-07T09:18:03;102049.41;;;8.68;100.00
19797;BME280;10058;57.654;12.044;2023-04-07T09:20:29;102050.06;;;8.18;100.00
19797;BME280;10058;57.654;12.044;2023-04-07T09:23:26;102047.59;;;8.67;100.00
19797;BME280;10058;57.654;12.044;2023-04-07T09:28:58;102040.69;;;8.69;100.00
19797;BME280;10058;57.654;12.044;2023-04-07T09:31:43;102042.03;;;8.93;100.00
19797;BME280;10058;57.654;12.044;2023-04-07T09:34:23;102050.97;;;8.48;100.00
19797;BME280;10058;57.654;12.044;2023-04-07T09:36:48;102043.34;;;8.85;100.00
19797;BME280;10058;57.654;12.044;2023-04-07T09:39:13;102043.41;;;8.70;100.00
19797;BME280;10058;57.654;12.044;2023-04-07T09:41:38;102044.09;;;8.83;100.00
19797;BME280;10058;57.654;12.044;2023-04-07T09:44:04;102036.34;;;9.02;100.00
19797;BME280;10058;57.654;12.044;2023-04-07T09:49:32;102034.94;;;9.08;100.00
19797;BME280;10058;57.654;12.044;2023-04-07T09:52:12;102032.13;;;9.22;100.00
19797;BME280;10058;57.654;12.044;2023-04-07T09:54:37;102035.75;;;9.40;100.00
19797;BME280;10058;57.654;12.044;2023-04-07T09:57:09;102039.25;;;9.57;100.00
19797;BME280;10058;57.654;12.044;2023-04-07T09:59:36;102031.97;;;9.69;100.00
19797;BME280;10058;57.654;12.044;2023-04-07T10:02:01;102022.94;;;9.82;100.00
19797;BME280;10058;57.654;12.044;2023-04-07T10:07:29;102012.00;;;9.92;100.00
19797;BME280;10058;57.654;12.044;2023-04-07T10:09:56;102015.75;;;9.61;100.00
19797;BME280;10058;57.654;12.044;2023-04-07T10:12:21;102020.84;;;9.58;100.00
19797;BME280;10058;57.654;12.044;2023-04-07T10:14:46;102014.41;;;9.69;100.00
19797;BME280;10058;57.654;12.044;2023-04-07T10:17:12;102001.59;;;9.95;100.00
19797;BME280;10058;57.654;12.044;2023-04-07T10:19:42;102004.75;;;10.05;100.00
19797;BME280;10058;57.654;12.044;2023-04-07T10:22:08;101978.47;;;9.73;100.00
19797;BME280;10058;57.654;12.044;2023-04-07T10:27:37;102002.38;;;10.28;100.00
19797;BME280;10058;57.654;12.044;2023-04-07T10:30:05;101995.63;;;9.99;100.00
19797;BME280;10058;57.654;12.044;2023-04-07T10:32:48;101965.84;;;10.19;100.00
19797;BME280;10058;57.654;12.044;2023-04-07T10:35:14;102001.34;;;10.43;100.00
19797;BME280;10058;57.654;12.044;2023-04-07T10:37:39;101998.44;;;10.37;100.00
19797;BME280;10058;57.654;12.044;2023-04-07T10:42:45;101993.69;;;10.67;100.00
19797;BME280;10058;57.654;12.044;2023-04-07T10:45:11;102006.03;;;10.86;100.00
19797;BME280;10058;57.654;12.044;2023-04-07T10:48:23;101997.13;;;10.84;100.00
19797;BME280;10058;57.654;12.044;2023-04-07T10:50:23;102010.88;;;11.15;100.00
19797;BME280;10058;57.654;12.044;2023-04-07T10:52:49;102000.53;;;11.01;100.00
19797;BME280;10058;57.654;12.044;2023-04-07T11:00:41;102000.94;;;10.71;100.00
19797;BME280;10058;57.654;12.044;2023-04-07T11:03:10;101992.94;;;10.70;100.00
19797;BME280;10058;57.654;12.044;2023-04-07T11:08:40;101987.50;;;11.05;100.00
19797;BME280;10058;57.654;12.044;2023-04-07T11:11:06;101990.56;;;11.14;100.00
19797;BME280;10058;57.654;12.044;2023-04-07T11:13:39;101983.75;;;11.00;100.00
19797;BME280;10058;57.654;12.044;2023-04-07T11:16:05;101974.78;;;11.37;100.00
19797;BME280;10058;57.654;12.044;2023-04-07T11:18:30;101984.97;;;11.08;100.00
19797;BME280;10058;57.654;12.044;2023-04-07T11:20:56;101973.84;;;11.15;100.00
19797;BME280;10058;57.654;12.044;2023-04-07T11:23:24;101972.06;;;11.35;100.00
19797;BME280;10058;57.654;12.044;2023-04-07T11:28:54;101976.19;;;11.29;100.00
19797;BME280;10058;57.654;12.044;2023-04-07T11:31:23;101980.81;;;11.13;100.00
19797;BME280;10058;57.654;12.044;2023-04-07T11:33:52;101984.69;;;11.41;100.00
19797;BME280;10058;57.654;12.044;2023-04-07T11:36:25;101983.53;;;11.15;100.00
19797;BME280;10058;57.654;12.044;2023-04-07T11:38:50;101980.69;;;11.71;100.00
19797;BME280;10058;57.654;12.044;2023-04-07T11:41:16;101972.63;;;12.10;100.00
19797;BME280;10058;57.654;12.044;2023-04-07T11:43:41;101980.34;;;11.64;100.00
19797;BME280;10058;57.654;12.044;2023-04-07T11:49:10;101987.47;;;11.65;100.00
19797;BME280;10058;57.654;12.044;2023-04-07T11:51:36;101976.59;;;12.21;100.00
19797;BME280;10058;57.654;12.044;2023-04-07T11:54:01;101983.06;;;11.65;98.95
19797;BME280;10058;57.654;12.044;2023-04-07T11:56:26;101976.75;;;11.41;99.45
19797;BME280;10058;57.654;12.044;2023-04-07T11:58:53;101983.78;;;11.40;100.00
19797;BME280;10058;57.654;12.044;2023-04-07T12:01:19;101982.03;;;11.62;100.00
19797;BME280;10058;57.654;12.044;2023-04-07T12:09:45;101972.44;;;12.28;100.00
19797;BME280;10058;57.654;12.044;2023-04-07T12:12:11;101971.41;;;12.24;99.65
19797;BME280;10058;57.654;12.044;2023-04-07T12:14:37;101975.13;;;12.74;100.00
19797;BME280;10058;57.654;12.044;2023-04-07T12:17:02;101967.56;;;12.61;96.86
19797;BME280;10058;57.654;12.044;2023-04-07T12:19:28;101968.69;;;12.91;97.99
19797;BME280;10058;57.654;12.044;2023-04-07T12:21:53;101961.81;;;12.96;94.98
19797;BME280;10058;57.654;12.044;2023-04-07T12:24:19;101978.75;;;12.31;95.85
19797;BME280;10058;57.654;12.044;2023-04-07T12:29:48;101969.34;;;12.17;98.26
19797;BME280;10058;57.654;12.044;2023-04-07T12:32:13;101975.34;;;11.91;100.00
19797;BME280;10058;57.654;12.044;2023-04-07T12:34:38;101972.84;;;12.38;100.00
19797;BME280;10058;57.654;12.044;2023-04-07T12:37:03;101964.78;;;12.35;99.26
19797;BME280;10058;57.654;12.044;2023-04-07T12:39:29;101979.88;;;11.93;98.18
19797;BME280;10058;57.654;12.044;2023-04-07T12:41:54;101974.16;;;12.05;99.30
19797;BME280;10058;57.654;12.044;2023-04-07T12:47:22;101970.50;;;11.80;97.66
19797;BME280;10058;57.654;12.044;2023-04-07T12:49:47;101978.28;;;12.19;98.60
19797;BME280;10058;57.654;12.044;2023-04-07T12:52:12;101976.84;;;12.27;98.29
19797;BME280;10058;57.654;12.044;2023-04-07T12:54:39;101965.50;;;12.09;97.85
19797;BME280;10058;57.654;12.044;2023-04-07T12:57:04;101974.47;;;12.35;97.83
19797;BME280;10058;57.654;12.044;2023-04-07T12:59:29;101977.38;;;12.41;97.60
19797;BME280;10058;57.654;12.044;2023-04-07T13:01:55;101975.09;;;12.28;95.43
19797;BME280;10058;57.654;12.044;2023-04-07T13:07:22;101981.66;;;12.37;97.19
19797;BME280;10058;57.654;12.044;2023-04-07T13:09:48;101975.19;;;12.08;95.88
19797;BME280;10058;57.654;12.044;2023-04-07T13:12:13;101979.19;;;11.99;96.59
19797;BME280;10058;57.654;12.044;2023-04-07T13:14:39;101980.56;;;12.10;96.33
19797;BME280;10058;57.654;12.044;2023-04-07T13:17:05;101980.38;;;11.84;97.40
19797;BME280;10058;57.654;12.044;2023-04-07T13:19:30;101975.34;;;11.91;100.00
19797;BME280;10058;57.654;12.044;2023-04-07T13:21:55;101976.63;;;11.79;100.00
19797;BME280;10058;57.654;12.044;2023-04-07T13:24:21;101981.28;;;12.06;100.00
19797;BME280;10058;57.654;12.044;2023-04-07T13:29:49;101977.19;;;12.36;100.00
19797;BME280;10058;57.654;12.044;2023-04-07T13:32:14;101982.97;;;12.04;100.00
19797;BME280;10058;57.654;12.044;2023-04-07T13:34:39;101993.38;;;11.78;100.00
19797;BME280;10058;57.654;12.044;2023-04-07T13:37:05;101989.63;;;11.94;100.00
19797;BME280;10058;57.654;12.044;2023-04-07T13:39:30;101994.59;;;11.87;98.23
19797;BME280;10058;57.654;12.044;2023-04-07T13:41:56;101993.16;;;11.53;100.00
19797;BME280;10058;57.654;12.044;2023-04-07T13:44:22;101997.28;;;11.67;100.00
19797;BME280;10058;57.654;12.044;2023-04-07T13:49:49;101992.50;;;10.99;95.29
19797;BME280;10058;57.654;12.044;2023-04-07T13:52:18;101999.31;;;10.94;94.27
19797;BME280;10058;57.654;12.044;2023-04-07T13:54:43;101998.34;;;11.11;94.88
19797;BME280;10058;57.654;12.044;2023-04-07T13:57:09;102002.25;;;11.20;94.23
19797;BME280;10058;57.654;12.044;2023-04-07T13:59:34;101997.28;;;11.67;97.46
19797;BME280;10058;57.654;12.044;2023-04-07T14:01:59;102002.69;;;11.49;94.58
19797;BME280;10058;57.654;12.044;2023-04-07T14:04:25;101992.88;;;11.47;94.79
19797;BME280;10058;57.654;12.044;2023-04-07T14:09:53;101992.88;;;11.47;94.65
19797;BME280;10058;57.654;12.044;2023-04-07T14:12:19;101996.22;;;11.43;95.30
19797;BME280;10058;57.654;12.044;2023-04-07T14:14:45;101994.44;;;11.42;95.83
19797;BME280;10058;57.654;12.044;2023-04-07T14:17:11;101992.63;;;11.41;96.93
19797;BME280;10058;57.654;12.044;2023-04-07T14:19:36;101995.97;;;11.37;96.07
19797;BME280;10058;57.654;12.044;2023-04-07T14:22:01;102014.41;;;10.77;93.23
19797;BME280;10058;57.654;12.044;2023-04-07T14:27:29;101990.81;;;10.63;94.54
19797;BME280;10058;57.654;12.044;2023-04-07T14:29:54;101999.31;;;10.56;95.06
19797;BME280;10058;57.654;12.044;2023-04-07T14:32:21;102002.03;;;10.39;95.81
19797;BME280;10058;57.654;12.044;2023-04-07T14:34:47;101995.00;;;10.77;97.23
19797;BME280;10058;57.654;12.044;2023-04-07T14:37:12;102004.47;;;10.53;94.86
19797;BME280;10058;57.654;12.044;2023-04-07T14:39:38;101998.72;;;10.43;92.19
19797;BME280;10058;57.654;12.044;2023-04-07T14:42:03;102006.91;;;10.30;92.15
19797;BME280;10058;57.654;12.044;2023-04-07T14:47:31;102000.84;;;10.15;93.38
19797;BME280;10058;57.654;12.044;2023-04-07T14:49:56;102013.25;;;10.34;95.75
19797;BME280;10058;57.654;12.044;2023-04-07T14:52:21;102014.28;;;9.84;92.12
19797;BME280;10058;57.654;12.044;2023-04-07T14:54:46;102009.66;;;9.80;92.42
19797;BME280;10058;57.654;12.044;2023-04-07T14:57:12;102012.38;;;9.82;92.59
19797;BME280;10058;57.654;12.044;2023-04-07T14:59:37;102020.84;;;9.58;92.56